Time;durP1;ratioP1;P1;durP2;ratioP2;P2;SDS_P1;SDS_P2;PMS_P1;PMS_P2;Temp;Humidity;BMP_temperature;BMP_pressure;BME280_temperature;BME280_humidity;BME280_pressure;Samples;Min_cycle;Max_cycle;Signal;HPM_P1;HPM_P2
2021/12/03 00:01:30;;;;;;;4.55;0.90;;;;;;;;;;4911473;29;20203;-68
2021/12/03 00:03:56;;;;;;;2.25;0.77;;;;;;;;;;4911494;29;20044;-68
2021/12/03 00:06:23;;;;;;;7.40;1.00;;;;;;;;;;4912720;29;20044;-68
2021/12/03 00:08:49;;;;;;;2.13;1.05;;;;;;;;;;4912670;29;20044;-68
2021/12/03 00:11:16;;;;;;;4.70;1.25;;;;;;;;;;4911160;29;20052;-68
2021/12/03 00:13:42;;;;;;;6.55;1.70;;;;;;;;;;4912344;29;20044;-68
2021/12/03 00:16:09;;;;;;;6.07;1.85;;;;;;;;;;4912647;29;20135;-68
2021/12/03 00:18:35;;;;;;;4.25;1.30;;;;;;;;;;4912534;29;20036;-68
2021/12/03 00:21:04;;;;;;;5.93;2.15;;;;;;;;;;4910385;29;20172;-68
2021/12/03 00:23:31;;;;;;;4.57;2.10;;;;;;;;;;4911606;29;20052;-68
2021/12/03 00:26:00;;;;;;;3.42;1.63;;;;;;;;;;4912304;29;20044;-68
2021/12/03 00:28:26;;;;;;;5.68;2.20;;;;;;;;;;4912502;29;20036;-68
2021/12/03 00:30:53;;;;;;;5.63;2.30;;;;;;;;;;4911908;29;20036;-68
2021/12/03 00:33:19;;;;;;;12.77;2.80;;;;;;;;;;4912775;29;20047;-67
2021/12/03 00:35:45;;;;;;;8.63;2.45;;;;;;;;;;4912203;29;20523;-67
2021/12/03 00:38:12;;;;;;;11.45;2.97;;;;;;;;;;4911151;29;20707;-68
2021/12/03 00:40:39;;;;;;;14.57;4.20;;;;;;;;;;4912032;29;20457;-68
2021/12/03 00:43:07;;;;;;;12.63;3.83;;;;;;;;;;4911909;29;20078;-68
2021/12/03 00:45:33;;;;;;;8.57;3.40;;;;;;;;;;4912048;29;20116;-68
2021/12/03 00:47:59;;;;;;;7.22;3.33;;;;;;;;;;4911428;29;20040;-68
2021/12/03 00:50:27;;;;;;;10.13;4.00;;;;;;;;;;4911828;29;20044;-68
2021/12/03 00:52:53;;;;;;;8.88;2.88;;;;;;;;;;4911011;29;20036;-68
2021/12/03 00:55:21;;;;;;;7.43;3.35;;;;;;;;;;4912602;29;20052;-68
2021/12/03 00:57:47;;;;;;;8.75;2.78;;;;;;;;;;4908523;29;20052;-68
2021/12/03 01:00:15;;;;;;;7.30;2.75;;;;;;;;;;4911664;29;20075;-69
2021/12/03 01:02:42;;;;;;;5.82;2.90;;;;;;;;;;4894654;29;20063;-68
2021/12/03 01:05:08;;;;;;;9.60;2.97;;;;;;;;;;4911864;29;20120;-68
2021/12/03 01:07:34;;;;;;;8.75;2.22;;;;;;;;;;4911125;29;20051;-68
2021/12/03 01:10:00;;;;;;;12.73;3.63;;;;;;;;;;4911375;29;20044;-67
2021/12/03 01:12:27;;;;;;;7.97;3.10;;;;;;;;;;4909619;29;20143;-68
2021/12/03 01:14:53;;;;;;;7.05;2.70;;;;;;;;;;4911062;29;20123;-68
2021/12/03 01:17:19;;;;;;;5.25;2.53;;;;;;;;;;4911689;29;20084;-68
2021/12/03 01:19:45;;;;;;;8.00;2.65;;;;;;;;;;4911385;29;20470;-68
2021/12/03 01:22:11;;;;;;;6.57;2.72;;;;;;;;;;4910432;29;20110;-68
2021/12/03 01:24:38;;;;;;;9.40;2.92;;;;;;;;;;4911308;29;20043;-68
2021/12/03 01:27:04;;;;;;;6.53;3.17;;;;;;;;;;4911001;29;20462;-68
2021/12/03 01:29:30;;;;;;;9.48;3.40;;;;;;;;;;4911201;29;20041;-68
2021/12/03 01:31:57;;;;;;;9.45;4.00;;;;;;;;;;4909701;29;20180;-68
2021/12/03 01:34:23;;;;;;;10.65;4.15;;;;;;;;;;4911310;29;20114;-68
2021/12/03 01:36:49;;;;;;;10.90;3.75;;;;;;;;;;4911748;29;20055;-68
2021/12/03 01:39:16;;;;;;;8.07;3.90;;;;;;;;;;4910320;29;20540;-68
2021/12/03 01:41:43;;;;;;;10.10;4.40;;;;;;;;;;4910007;29;20536;-68
2021/12/03 01:44:09;;;;;;;10.68;4.60;;;;;;;;;;4910557;29;20047;-68
2021/12/03 01:46:35;;;;;;;10.68;4.82;;;;;;;;;;4911051;29;20052;-67
2021/12/03 01:49:02;;;;;;;13.00;4.78;;;;;;;;;;4910826;29;20730;-68
2021/12/03 01:51:28;;;;;;;11.88;5.22;;;;;;;;;;4911387;29;20044;-68
2021/12/03 01:53:55;;;;;;;10.40;5.18;;;;;;;;;;4909591;29;20498;-68
2021/12/03 01:56:21;;;;;;;12.88;6.18;;;;;;;;;;4894060;29;20048;-68
2021/12/03 01:58:49;;;;;;;10.82;6.38;;;;;;;;;;4911180;29;20044;-67
2021/12/03 02:01:16;;;;;;;13.27;6.25;;;;;;;;;;4910625;29;20409;-68
2021/12/03 02:03:43;;;;;;;11.07;6.40;;;;;;;;;;4910675;29;20055;-67
2021/12/03 02:06:12;;;;;;;12.32;6.72;;;;;;;;;;4956822;23;20047;-60
2021/12/03 02:08:38;;;;;;;;;;;;;;;;;;4928706;29;20105;-60
2021/12/03 02:11:06;;;;;;;12.68;7.28;;;;;;;;;;4929435;29;19985;-60
2021/12/03 02:13:32;;;;;;;12.30;7.30;;;;;;;;;;4929782;29;20048;-60
2021/12/03 02:15:58;;;;;;;12.38;7.90;;;;;;;;;;4944275;28;20051;-60
2021/12/03 02:18:25;;;;;;;13.20;9.10;;;;;;;;;;4930356;29;20048;-59
2021/12/03 02:20:52;;;;;;;12.15;7.90;;;;;;;;;;4929859;29;20090;-61
2021/12/03 02:23:19;;;;;;;18.40;8.35;;;;;;;;;;4929449;29;20052;-60
2021/12/03 02:25:45;;;;;;;15.75;8.75;;;;;;;;;;4929661;29;20035;-60
2021/12/03 02:28:13;;;;;;;16.80;9.73;;;;;;;;;;4929607;29;20086;-60
2021/12/03 02:30:39;;;;;;;15.43;9.65;;;;;;;;;;4929761;29;20736;-60
2021/12/03 02:33:06;;;;;;;14.55;9.13;;;;;;;;;;4929560;29;20048;-60
2021/12/03 02:35:32;;;;;;;15.40;8.57;;;;;;;;;;4929528;29;20051;-60
2021/12/03 02:37:58;;;;;;;15.75;9.38;;;;;;;;;;4928860;29;20075;-60
2021/12/03 02:40:25;;;;;;;15.95;8.95;;;;;;;;;;4929184;29;20052;-60
2021/12/03 02:42:51;;;;;;;16.15;9.68;;;;;;;;;;4929286;29;20039;-61
2021/12/03 02:45:18;;;;;;;18.63;9.13;;;;;;;;;;4929498;29;20120;-60
2021/12/03 02:47:44;;;;;;;15.27;9.13;;;;;;;;;;4929238;29;20052;-60
2021/12/03 02:50:11;;;;;;;15.25;9.13;;;;;;;;;;4928891;29;20031;-60
2021/12/03 02:52:38;;;;;;;12.95;9.13;;;;;;;;;;4928481;29;20048;-60
2021/12/03 02:55:05;;;;;;;13.93;9.88;;;;;;;;;;4928867;29;20072;-60
2021/12/03 02:57:31;;;;;;;13.50;9.18;;;;;;;;;;4928829;29;20425;-60
2021/12/03 02:59:57;;;;;;;17.85;10.07;;;;;;;;;;4929202;29;20458;-60
2021/12/03 03:02:24;;;;;;;18.17;9.20;;;;;;;;;;4929127;29;20054;-60
2021/12/03 03:04:50;;;;;;;15.30;9.35;;;;;;;;;;4929471;29;20074;-60
2021/12/03 03:07:17;;;;;;;15.40;9.07;;;;;;;;;;4924344;29;20051;-60
2021/12/03 03:09:44;;;;;;;17.83;9.60;;;;;;;;;;4928841;29;20048;-60
2021/12/03 03:12:11;;;;;;;16.63;9.48;;;;;;;;;;4928542;29;20055;-60
2021/12/03 03:14:43;;;;;;;16.52;10.15;;;;;;;;;;4928853;29;20082;-60
2021/12/03 03:17:09;;;;;;;20.77;9.88;;;;;;;;;;4908710;29;20062;-60
2021/12/03 03:19:35;;;;;;;14.45;9.82;;;;;;;;;;4928598;29;20054;-60
2021/12/03 03:22:02;;;;;;;14.15;8.43;;;;;;;;;;4927709;29;20039;-60
2021/12/03 03:24:28;;;;;;;12.52;8.35;;;;;;;;;;4927757;29;20035;-60
2021/12/03 03:26:54;;;;;;;18.42;9.23;;;;;;;;;;4928580;29;20048;-60
2021/12/03 03:29:21;;;;;;;13.43;9.50;;;;;;;;;;4928772;29;20048;-60
2021/12/03 03:31:47;;;;;;;18.48;8.20;;;;;;;;;;4929005;29;20069;-60
2021/12/03 03:34:14;;;;;;;15.90;8.73;;;;;;;;;;4928021;29;20044;-60
2021/12/03 03:36:43;;;;;;;14.75;8.77;;;;;;;;;;4928233;29;20110;-60
2021/12/03 03:39:12;;;;;;;16.50;8.75;;;;;;;;;;4927603;29;20067;-60
2021/12/03 03:41:38;;;;;;;21.05;9.38;;;;;;;;;;4928609;29;20130;-60
2021/12/03 03:44:05;;;;;;;14.05;9.50;;;;;;;;;;4928039;29;20036;-60
2021/12/03 03:46:31;;;;;;;13.48;9.25;;;;;;;;;;4928532;29;20040;-60
2021/12/03 03:48:57;;;;;;;16.98;9.10;;;;;;;;;;4928026;29;20051;-60
2021/12/03 03:51:23;;;;;;;17.98;9.60;;;;;;;;;;4928141;29;20675;-60
2021/12/03 03:53:49;;;;;;;12.75;8.50;;;;;;;;;;4928101;29;20040;-60
2021/12/03 03:56:16;;;;;;;15.25;9.13;;;;;;;;;;4927345;29;20055;-60
2021/12/03 03:58:42;;;;;;;13.85;8.88;;;;;;;;;;4928468;29;20048;-60
2021/12/03 04:01:09;;;;;;;13.93;9.10;;;;;;;;;;4927664;29;20043;-60
2021/12/03 04:03:35;;;;;;;14.80;9.07;;;;;;;;;;4928282;29;20084;-60
2021/12/03 04:06:01;;;;;;;13.05;9.40;;;;;;;;;;4927767;29;20513;-60
2021/12/03 04:08:29;;;;;;;12.63;8.88;;;;;;;;;;4927787;29;20119;-60
2021/12/03 04:10:57;;;;;;;19.15;9.82;;;;;;;;;;4927799;29;20126;-60
2021/12/03 04:13:23;;;;;;;16.05;9.35;;;;;;;;;;4928128;29;20043;-60
2021/12/03 04:15:50;;;;;;;13.18;9.27;;;;;;;;;;4928371;29;20538;-60
2021/12/03 04:18:17;;;;;;;14.48;9.05;;;;;;;;;;4928435;29;20040;-60
2021/12/03 04:20:43;;;;;;;15.88;9.40;;;;;;;;;;4926186;29;20048;-60
2021/12/03 04:23:11;;;;;;;14.38;9.15;;;;;;;;;;4927341;29;20047;-60
2021/12/03 04:25:37;;;;;;;17.65;9.25;;;;;;;;;;4927927;29;20079;-60
2021/12/03 04:28:04;;;;;;;13.30;8.80;;;;;;;;;;4927538;29;20056;-61
2021/12/03 04:30:31;;;;;;;13.90;8.30;;;;;;;;;;4927861;29;20466;-60
2021/12/03 04:32:57;;;;;;;16.00;9.10;;;;;;;;;;4927686;29;20044;-60
2021/12/03 04:35:24;;;;;;;16.77;8.93;;;;;;;;;;4927818;29;20108;-60
2021/12/03 04:37:51;;;;;;;14.65;8.63;;;;;;;;;;4927183;29;20091;-60
2021/12/03 04:40:18;;;;;;;13.98;8.85;;;;;;;;;;4926914;29;21165;-60
2021/12/03 04:42:44;;;;;;;17.50;8.55;;;;;;;;;;4927820;29;20429;-60
2021/12/03 04:45:12;;;;;;;11.18;7.75;;;;;;;;;;4927789;29;20447;-60
2021/12/03 04:47:38;;;;;;;17.73;9.10;;;;;;;;;;4929957;29;20079;-60
2021/12/03 04:50:06;;;;;;;14.40;8.95;;;;;;;;;;4931417;29;20118;-60
2021/12/03 04:52:32;;;;;;;11.98;8.60;;;;;;;;;;4931048;29;20047;-60
2021/12/03 04:54:58;;;;;;;11.60;8.18;;;;;;;;;;4931075;29;21887;-60
2021/12/03 04:57:25;;;;;;;14.98;8.68;;;;;;;;;;4931034;29;20044;-60
2021/12/03 04:59:51;;;;;;;14.23;8.45;;;;;;;;;;4931390;29;20048;-61
2021/12/03 05:02:19;;;;;;;16.23;8.48;;;;;;;;;;4931512;29;20545;-60
2021/12/03 05:04:47;;;;;;;15.00;9.27;;;;;;;;;;4931001;29;20170;-60
2021/12/03 05:10:05;;;;;;;16.92;8.23;;;;;;;;;;4930980;29;20131;-60
2021/12/03 05:12:31;;;;;;;13.13;8.73;;;;;;;;;;4926703;29;20047;-60
2021/12/03 05:14:57;;;;;;;17.00;8.93;;;;;;;;;;4930530;29;20036;-60
2021/12/03 05:17:23;;;;;;;12.05;8.85;;;;;;;;;;4930952;29;20046;-60
2021/12/03 05:19:50;;;;;;;15.48;9.13;;;;;;;;;;4931499;29;21213;-60
2021/12/03 05:22:16;;;;;;;14.30;8.60;;;;;;;;;;4930226;29;20102;-60
2021/12/03 05:24:45;;;;;;;14.13;7.97;;;;;;;;;;4930942;29;20047;-60
2021/12/03 05:27:16;;;;;;;14.50;8.93;;;;;;;;;;4930419;29;20470;-60
2021/12/03 05:29:43;;;;;;;18.17;8.90;;;;;;;;;;4930630;29;20047;-60
2021/12/03 05:32:10;;;;;;;12.45;8.10;;;;;;;;;;4930723;29;20055;-60
2021/12/03 05:34:38;;;;;;;12.45;8.88;;;;;;;;;;4930865;29;20051;-60
2021/12/03 05:37:04;;;;;;;14.73;8.60;;;;;;;;;;4912583;29;20565;-59
2021/12/03 05:39:30;;;;;;;12.65;8.13;;;;;;;;;;4930136;29;20044;-60
2021/12/03 05:41:56;;;;;;;18.33;8.50;;;;;;;;;;4930172;29;20051;-61
2021/12/03 05:44:23;;;;;;;13.25;8.15;;;;;;;;;;4930533;29;20051;-61
2021/12/03 05:46:49;;;;;;;17.23;7.43;;;;;;;;;;4930444;29;20453;-60
2021/12/03 05:49:15;;;;;;;12.07;7.70;;;;;;;;;;4930202;29;20512;-60
2021/12/03 05:51:41;;;;;;;12.48;8.60;;;;;;;;;;4929940;29;20048;-60
2021/12/03 05:54:09;;;;;;;11.80;7.53;;;;;;;;;;4930647;29;20043;-60
2021/12/03 05:56:35;;;;;;;11.40;6.97;;;;;;;;;;4929521;29;20194;-60
2021/12/03 05:59:01;;;;;;;17.35;8.20;;;;;;;;;;4929426;29;20493;-61
2021/12/03 06:01:27;;;;;;;12.45;7.32;;;;;;;;;;4930078;29;20047;-61
2021/12/03 06:03:53;;;;;;;11.40;7.50;;;;;;;;;;4929838;29;20071;-61
2021/12/03 06:06:21;;;;;;;14.82;7.38;;;;;;;;;;4929717;29;20067;-60
2021/12/03 06:08:47;;;;;;;15.02;7.03;;;;;;;;;;4929582;29;20048;-61
2021/12/03 06:11:13;;;;;;;12.73;7.05;;;;;;;;;;4928358;29;20058;-61
2021/12/03 06:13:40;;;;;;;14.57;7.00;;;;;;;;;;4926479;29;20038;-61
2021/12/03 06:16:08;;;;;;;12.43;5.88;;;;;;;;;;4925540;29;20137;-61
2021/12/03 06:18:34;;;;;;;12.23;6.50;;;;;;;;;;4929696;29;20058;-61
2021/12/03 06:21:01;;;;;;;11.50;6.60;;;;;;;;;;4927885;29;20401;-61
2021/12/03 06:23:29;;;;;;;12.38;5.97;;;;;;;;;;4929721;29;20044;-61
2021/12/03 06:25:55;;;;;;;15.25;6.15;;;;;;;;;;4928887;29;20395;-61
2021/12/03 06:28:22;;;;;;;10.75;6.25;;;;;;;;;;4930213;29;20051;-61
2021/12/03 06:30:48;;;;;;;13.98;6.22;;;;;;;;;;4930615;29;20482;-61
2021/12/03 06:33:14;;;;;;;13.20;6.00;;;;;;;;;;4927894;29;20131;-61
2021/12/03 06:35:40;;;;;;;10.55;5.65;;;;;;;;;;4929272;29;20063;-61
2021/12/03 06:38:07;;;;;;;12.95;6.20;;;;;;;;;;4928157;29;20482;-61
2021/12/03 06:40:33;;;;;;;11.60;6.35;;;;;;;;;;4928361;29;20040;-61
2021/12/03 06:42:59;;;;;;;11.02;6.25;;;;;;;;;;4929110;29;20043;-62
2021/12/03 06:45:25;;;;;;;12.77;6.05;;;;;;;;;;4929376;29;20425;-62
2021/12/03 06:47:52;;;;;;;8.90;5.03;;;;;;;;;;4911641;29;20489;-62
2021/12/03 06:50:18;;;;;;;11.20;6.43;;;;;;;;;;4929260;29;20471;-61
2021/12/03 06:52:50;;;;;;;15.02;6.60;;;;;;;;;;4929520;29;20047;-62
2021/12/03 06:55:16;;;;;;;12.20;6.22;;;;;;;;;;4927139;29;20115;-61
2021/12/03 06:57:44;;;;;;;15.30;6.10;;;;;;;;;;4928259;29;20051;-61
2021/12/03 07:00:10;;;;;;;;;;;;;;;;;;4929206;29;20719;-61
2021/12/03 07:02:37;;;;;;;15.55;5.35;;;;;;;;;;4927859;29;20001;-60
2021/12/03 07:05:04;;;;;;;12.63;5.63;;;;;;;;;;4928899;29;20062;-60
2021/12/03 07:07:31;;;;;;;13.88;5.40;;;;;;;;;;4928168;29;20130;-61
2021/12/03 07:09:57;;;;;;;17.08;5.20;;;;;;;;;;4927234;29;20148;-60
2021/12/03 07:12:23;;;;;;;12.43;7.30;;;;;;;;;;4927418;29;20056;-61
2021/12/03 07:14:49;;;;;;;11.38;6.15;;;;;;;;;;4928791;29;20040;-60
2021/12/03 07:17:16;;;;;;;10.43;5.53;;;;;;;;;;4928543;29;20086;-60
2021/12/03 07:19:42;;;;;;;11.43;6.10;;;;;;;;;;4927507;29;20062;-60
2021/12/03 07:22:08;;;;;;;12.55;6.63;;;;;;;;;;4926650;29;20048;-60
2021/12/03 07:24:34;;;;;;;18.60;6.28;;;;;;;;;;4928078;29;20051;-60
2021/12/03 07:27:01;;;;;;;12.38;6.78;;;;;;;;;;4927951;29;20048;-61
2021/12/03 07:29:28;;;;;;;11.02;6.50;;;;;;;;;;4921369;29;20226;-61
2021/12/03 07:31:55;;;;;;;13.27;5.60;;;;;;;;;;4926349;29;20039;-62
2021/12/03 07:34:21;;;;;;;11.82;5.57;;;;;;;;;;4928131;29;20059;-62
2021/12/03 07:36:47;;;;;;;11.07;5.75;;;;;;;;;;4926687;29;20050;-61
2021/12/03 07:39:13;;;;;;;12.18;6.25;;;;;;;;;;4926368;29;20052;-61
2021/12/03 07:41:41;;;;;;;12.20;6.35;;;;;;;;;;4927805;29;20039;-61
2021/12/03 07:44:08;;;;;;;14.20;6.47;;;;;;;;;;4926955;29;20042;-61
2021/12/03 07:46:34;;;;;;;14.07;5.53;;;;;;;;;;4927434;29;20051;-62
2021/12/03 07:49:00;;;;;;;12.77;5.50;;;;;;;;;;4925903;29;20044;-62
2021/12/03 07:51:26;;;;;;;9.88;5.45;;;;;;;;;;4926558;29;20087;-61
2021/12/03 07:53:53;;;;;;;10.52;5.53;;;;;;;;;;4927712;29;20521;-63
2021/12/03 07:56:19;;;;;;;11.40;5.63;;;;;;;;;;4928192;29;20094;-62
2021/12/03 07:58:45;;;;;;;15.32;5.90;;;;;;;;;;4927715;29;20517;-62
2021/12/03 08:01:11;;;;;;;12.80;5.75;;;;;;;;;;4927367;29;20059;-62
2021/12/03 08:03:38;;;;;;;13.30;5.93;;;;;;;;;;4926006;29;20130;-62
2021/12/03 08:06:08;;;;;;;13.70;5.47;;;;;;;;;;4923996;29;20060;-63
2021/12/03 08:08:37;;;;;;;13.13;5.25;;;;;;;;;;4925272;29;20055;-63
2021/12/03 08:11:03;;;;;;;13.70;5.68;;;;;;;;;;4925156;29;20509;-63
2021/12/03 08:13:29;;;;;;;17.15;5.88;;;;;;;;;;4925969;29;20079;-63
2021/12/03 08:15:55;;;;;;;11.85;5.60;;;;;;;;;;4924707;29;20047;-63
2021/12/03 08:18:22;;;;;;;13.05;6.00;;;;;;;;;;4925437;29;20052;-64
2021/12/03 08:20:48;;;;;;;16.33;6.50;;;;;;;;;;4926002;29;20094;-63
2021/12/03 08:23:14;;;;;;;16.40;6.82;;;;;;;;;;4928634;29;20055;-63
2021/12/03 08:25:40;;;;;;;15.32;7.07;;;;;;;;;;4929047;29;22058;-64
2021/12/03 08:28:07;;;;;;;21.40;7.93;;;;;;;;;;4928140;29;20050;-64
2021/12/03 08:30:33;;;;;;;15.60;8.45;;;;;;;;;;4929360;29;20057;-64
2021/12/03 08:33:00;;;;;;;21.85;8.27;;;;;;;;;;4927066;29;20114;-64
2021/12/03 08:35:26;;;;;;;16.15;7.43;;;;;;;;;;4929116;29;20048;-64
2021/12/03 08:37:53;;;;;;;20.63;9.23;;;;;;;;;;4927450;29;20446;-64
2021/12/03 08:40:20;;;;;;;18.50;8.43;;;;;;;;;;4929290;29;20036;-63
2021/12/03 08:42:46;;;;;;;17.08;8.30;;;;;;;;;;4929619;29;20521;-64
2021/12/03 08:45:15;;;;;;;21.70;9.50;;;;;;;;;;4928777;29;20035;-63
2021/12/03 08:47:44;;;;;;;18.67;9.80;;;;;;;;;;4928698;29;20088;-64
2021/12/03 08:50:14;;;;;;;21.30;9.63;;;;;;;;;;4928572;29;20047;-64
2021/12/03 08:53:04;;;;;;;23.92;12.00;;;;;;;;;;4928105;29;20059;-64
2021/12/03 08:55:31;;;;;;;26.95;10.82;;;;;;;;;;4928650;29;20202;-65
2021/12/03 08:57:57;;;;;;;27.25;12.00;;;;;;;;;;4928650;29;20063;-66
2021/12/03 09:00:24;;;;;;;27.10;11.95;;;;;;;;;;4929010;29;20051;-65
2021/12/03 09:02:51;;;;;;;25.95;12.98;;;;;;;;;;4928401;29;20043;-65
2021/12/03 09:05:17;;;;;;;25.65;11.75;;;;;;;;;;4929123;29;20056;-66
2021/12/03 09:07:44;;;;;;;20.02;12.25;;;;;;;;;;4927579;29;20086;-65
2021/12/03 09:10:13;;;;;;;29.70;13.10;;;;;;;;;;4928345;29;20039;-65
2021/12/03 09:12:39;;;;;;;31.77;12.95;;;;;;;;;;4928457;29;20855;-65
2021/12/03 09:15:09;;;;;;;28.08;13.18;;;;;;;;;;4926936;29;20469;-65
2021/12/03 09:22:38;;;;;;;30.67;14.13;;;;;;;;;;4927474;29;20040;-66
2021/12/03 09:25:05;;;;;;;35.67;13.57;;;;;;;;;;4911260;29;20047;-65
2021/12/03 09:27:32;;;;;;;26.02;13.48;;;;;;;;;;4927851;29;20048;-66
2021/12/03 09:29:58;;;;;;;29.83;13.77;;;;;;;;;;4928229;29;20163;-66
2021/12/03 09:32:30;;;;;;;30.55;14.05;;;;;;;;;;4928359;29;20058;-66
2021/12/03 09:34:56;;;;;;;31.85;13.82;;;;;;;;;;4925820;29;20052;-66
2021/12/03 09:37:23;;;;;;;31.80;14.18;;;;;;;;;;4926701;29;20103;-66
2021/12/03 09:39:50;;;;;;;24.80;12.05;;;;;;;;;;4928244;29;20462;-66
2021/12/03 09:42:20;;;;;;;21.92;11.45;;;;;;;;;;4928124;29;20044;-66
2021/12/03 09:44:47;;;;;;;30.13;14.10;;;;;;;;;;4928283;29;20123;-67
2021/12/03 09:47:14;;;;;;;25.95;12.05;;;;;;;;;;4927392;29;20051;-67
2021/12/03 09:49:41;;;;;;;28.63;12.38;;;;;;;;;;4927954;29;20119;-66
2021/12/03 09:52:13;;;;;;;29.10;12.13;;;;;;;;;;4909356;29;20114;-66
2021/12/03 09:54:43;;;;;;;30.63;12.32;;;;;;;;;;4927639;29;20044;-66
2021/12/03 09:57:13;;;;;;;25.35;11.07;;;;;;;;;;4927070;29;20052;-66
2021/12/03 10:00:05;;;;;;;27.90;11.85;;;;;;;;;;4925877;29;20517;-66
2021/12/03 10:03:10;;;;;;;24.60;11.70;;;;;;;;;;4927003;29;20039;-66
2021/12/03 10:09:30;;;;;;;23.70;11.32;;;;;;;;;;4926135;29;20147;-66
2021/12/03 10:13:51;;;;;;;22.70;10.10;;;;;;;;;;4928986;29;20048;-66
2021/12/03 10:18:58;;;;;;;26.50;9.85;;;;;;;;;;4929452;29;20055;-66
2021/12/03 10:27:21;;;;;;;25.05;9.52;;;;;;;;;;4929238;29;20056;-66
2021/12/03 10:29:57;;;;;;;24.20;8.88;;;;;;;;;;4929213;29;20509;-66
2021/12/03 10:32:38;;;;;;;;;;;;;;;;;;4929982;29;20098;-66
2021/12/03 10:35:26;;;;;;;20.20;7.88;;;;;;;;;;4929323;29;19918;-66
2021/12/03 10:38:04;;;;;;;24.77;7.68;;;;;;;;;;4928000;29;20040;-66
2021/12/03 10:40:51;;;;;;;24.50;8.07;;;;;;;;;;4929502;29;20047;-66
2021/12/03 10:49:01;;;;;;;20.95;6.90;;;;;;;;;;4929386;29;20482;-66
2021/12/03 10:56:46;;;;;;;15.57;5.60;;;;;;;;;;4928187;29;20486;-66
2021/12/03 11:05:02;;;;;;;24.50;6.38;;;;;;;;;;4928410;29;20051;-66
2021/12/03 11:07:38;;;;;;;;;;;;;;;;;;4928112;29;20187;-66
2021/12/03 11:18:46;;;;;;;24.52;5.10;;;;;;;;;;4929012;29;20048;-66
2021/12/03 11:21:55;;;;;;;20.35;5.30;;;;;;;;;;4927375;29;20086;-66
2021/12/03 11:40:38;;;;;;;20.83;6.43;;;;;;;;;;4928233;29;20047;-66
2021/12/03 12:02:41;;;;;;;19.45;3.35;;;;;;;;;;4924816;29;20058;-66
2021/12/03 12:16:04;;;;;;;10.75;3.88;;;;;;;;;;4925872;29;20052;-66
2021/12/03 12:23:09;;;;;;;12.45;3.75;;;;;;;;;;4923804;29;20078;-66
2021/12/03 12:35:45;;;;;;;11.38;3.47;;;;;;;;;;4924071;29;20052;-65
2021/12/03 12:58:27;;;;;;;11.85;4.15;;;;;;;;;;4927693;29;20040;-64
2021/12/03 13:03:29;;;;;;;10.05;3.38;;;;;;;;;;4926969;29;20298;-65
2021/12/03 13:11:12;;;;;;;10.43;3.42;;;;;;;;;;4931452;29;20176;-65
2021/12/03 13:30:57;;;;;;;10.05;4.07;;;;;;;;;;4930746;29;20040;-65
2021/12/03 13:36:13;;;;;;;10.27;4.22;;;;;;;;;;4928724;29;20482;-64
2021/12/03 14:00:08;;;;;;;9.68;4.07;;;;;;;;;;4929792;29;20052;-64
2021/12/03 14:11:34;;;;;;;12.55;4.28;;;;;;;;;;4930441;29;20382;-65
2021/12/03 14:20:23;;;;;;;11.82;4.68;;;;;;;;;;4927355;29;20047;-65
2021/12/03 14:34:48;;;;;;;9.23;4.22;;;;;;;;;;4926974;29;20402;-65
2021/12/03 14:38:53;;;;;;;10.30;4.40;;;;;;;;;;4930099;29;20044;-65
2021/12/03 14:42:06;;;;;;;10.52;4.63;;;;;;;;;;4930272;29;20047;-65
2021/12/03 14:51:56;;;;;;;8.55;4.72;;;;;;;;;;4928286;29;20170;-65
2021/12/03 14:54:37;;;;;;;10.95;4.90;;;;;;;;;;4928949;29;20056;-65
2021/12/03 14:57:09;;;;;;;9.60;5.05;;;;;;;;;;4928449;29;20050;-65
2021/12/03 14:59:37;;;;;;;9.25;4.53;;;;;;;;;;4929771;29;20417;-65
2021/12/03 15:02:14;;;;;;;;;;;;;;;;;;4929911;29;20039;-65
2021/12/03 15:04:58;;;;;;;6.68;4.07;;;;;;;;;;4912122;29;19926;-64
2021/12/03 15:07:35;;;;;;;9.85;4.35;;;;;;;;;;4929761;29;20060;-65
2021/12/03 15:10:05;;;;;;;13.13;4.68;;;;;;;;;;4929744;29;20088;-65
2021/12/03 15:23:35;;;;;;;7.68;4.65;;;;;;;;;;4928701;29;20047;-65
2021/12/03 15:26:15;;;;;;;9.13;4.93;;;;;;;;;;4928630;29;20047;-65
2021/12/03 15:34:03;;;;;;;10.05;5.18;;;;;;;;;;4923792;29;20597;-66
2021/12/03 15:37:08;;;;;;;10.00;4.85;;;;;;;;;;4917143;29;20044;-65
2021/12/03 15:54:07;;;;;;;8.50;5.28;;;;;;;;;;4925203;29;20134;-66
2021/12/03 15:56:09;;;;;;;12.30;5.43;;;;;;;;;;4908364;29;20055;-66
2021/12/03 16:04:15;;;;;;;11.32;5.68;;;;;;;;;;4925439;29;20516;-66
2021/12/03 16:09:53;;;;;;;8.25;5.32;;;;;;;;;;4911787;29;20457;-66
2021/12/03 16:12:40;;;;;;;10.95;5.93;;;;;;;;;;4927119;29;20119;-66
2021/12/03 16:23:03;;;;;;;14.23;6.22;;;;;;;;;;4924815;29;20047;-67
2021/12/03 16:47:03;;;;;;;9.77;6.82;;;;;;;;;;4929457;29;20078;-66
2021/12/03 16:51:56;;;;;;;10.32;6.82;;;;;;;;;;4928494;29;20035;-66
2021/12/03 16:54:28;;;;;;;13.00;7.32;;;;;;;;;;4929797;29;20577;-65
2021/12/03 16:56:56;;;;;;;15.07;8.30;;;;;;;;;;4928717;29;20055;-66
2021/12/03 16:59:22;;;;;;;14.13;7.68;;;;;;;;;;4929886;29;20410;-67
2021/12/03 17:02:04;;;;;;;11.35;7.80;;;;;;;;;;4929534;29;20051;-66
2021/12/03 17:04:44;;;;;;;14.90;8.38;;;;;;;;;;4929664;29;20048;-66
2021/12/03 17:07:57;;;;;;;13.77;7.95;;;;;;;;;;4928897;29;20051;-66
2021/12/03 17:21:21;;;;;;;15.52;8.80;;;;;;;;;;4928325;29;20043;-66
2021/12/03 17:27:05;;;;;;;14.30;8.90;;;;;;;;;;4927139;29;20107;-66
2021/12/03 17:29:31;;;;;;;14.57;8.63;;;;;;;;;;4927801;29;20075;-66
2021/12/03 17:44:12;;;;;;;17.30;9.75;;;;;;;;;;4927858;29;20119;-66
2021/12/03 17:45:55;;;;;;;15.93;9.57;;;;;;;;;;4929347;29;20046;-66
2021/12/03 17:48:24;;;;;;;19.58;9.82;;;;;;;;;;4928307;29;20141;-67
2021/12/03 17:58:29;;;;;;;16.63;10.00;;;;;;;;;;4927627;29;20189;-66
2021/12/03 18:01:01;;;;;;;20.58;11.57;;;;;;;;;;4927709;29;20107;-67
2021/12/03 18:06:19;;;;;;;19.83;11.80;;;;;;;;;;4927124;29;20070;-66
2021/12/03 18:08:55;;;;;;;17.60;9.45;;;;;;;;;;4928288;29;20095;-65
2021/12/03 18:14:34;;;;;;;20.25;12.20;;;;;;;;;;4927121;29;20134;-67
2021/12/03 18:49:44;;;;;;;23.38;12.38;;;;;;;;;;4926085;29;20465;-64
2021/12/03 18:52:22;;;;;;;26.85;13.43;;;;;;;;;;4925626;29;20485;-65
2021/12/03 18:54:58;;;;;;;22.45;12.13;;;;;;;;;;4927349;29;20043;-65
2021/12/03 18:57:29;;;;;;;22.83;13.15;;;;;;;;;;4927010;29;20044;-64
2021/12/03 19:00:01;;;;;;;24.52;13.00;;;;;;;;;;4926585;29;20111;-65
2021/12/03 19:02:28;;;;;;;23.48;12.85;;;;;;;;;;4927300;29;20721;-65
2021/12/03 19:05:02;;;;;;;24.70;13.27;;;;;;;;;;4926038;29;20107;-64
2021/12/03 19:07:41;;;;;;;21.48;12.68;;;;;;;;;;4927278;29;20070;-65
2021/12/03 19:10:13;;;;;;;21.75;12.00;;;;;;;;;;4926694;29;20098;-64
2021/12/03 19:12:43;;;;;;;24.83;14.63;;;;;;;;;;4926588;29;20052;-64
2021/12/03 19:15:10;;;;;;;26.92;14.45;;;;;;;;;;4927018;29;20054;-64
2021/12/03 19:17:40;;;;;;;;;;;;;;;;;;4925819;29;20418;-65
2021/12/03 19:20:11;;;;;;;23.65;13.68;;;;;;;;;;4925316;29;20011;-65
2021/12/03 19:22:38;;;;;;;26.23;13.20;;;;;;;;;;4926321;29;20058;-65
2021/12/03 19:25:04;;;;;;;23.88;13.07;;;;;;;;;;4925366;29;20075;-65
2021/12/03 19:27:30;;;;;;;25.80;13.77;;;;;;;;;;4925931;29;20135;-65
2021/12/03 19:29:59;;;;;;;28.38;13.70;;;;;;;;;;4909077;29;20044;-65
2021/12/03 19:32:28;;;;;;;27.63;14.88;;;;;;;;;;4925772;29;20062;-65
2021/12/03 19:34:54;;;;;;;26.33;14.68;;;;;;;;;;4925208;29;20502;-65
2021/12/03 19:37:21;;;;;;;26.88;15.00;;;;;;;;;;4926283;29;20043;-65
2021/12/03 19:39:48;;;;;;;26.50;13.68;;;;;;;;;;4926456;29;20087;-65
2021/12/03 19:42:19;;;;;;;23.25;13.27;;;;;;;;;;4926110;29;20044;-65
2021/12/03 19:44:52;;;;;;;26.38;14.50;;;;;;;;;;4926299;29;20572;-65
2021/12/03 19:47:26;;;;;;;26.33;13.57;;;;;;;;;;4926209;29;20051;-65
2021/12/03 19:50:04;;;;;;;24.77;13.45;;;;;;;;;;4924671;29;20047;-65
2021/12/03 19:52:39;;;;;;;24.85;13.30;;;;;;;;;;4908683;29;20063;-65
2021/12/03 19:55:05;;;;;;;33.20;14.60;;;;;;;;;;4925807;29;20054;-65
2021/12/03 19:57:31;;;;;;;23.63;12.55;;;;;;;;;;4926149;29;20058;-65
2021/12/03 19:59:58;;;;;;;28.50;13.90;;;;;;;;;;4925462;29;20861;-65
2021/12/03 20:02:24;;;;;;;23.88;12.85;;;;;;;;;;4925364;29;20063;-65
2021/12/03 20:04:50;;;;;;;26.80;13.05;;;;;;;;;;4908198;29;20501;-65
2021/12/03 20:07:17;;;;;;;27.70;13.55;;;;;;;;;;4924922;29;20102;-64
2021/12/03 20:09:47;;;;;;;24.23;12.73;;;;;;;;;;4926058;29;20039;-64
2021/12/03 20:12:18;;;;;;;23.83;12.52;;;;;;;;;;4925501;29;20051;-65
2021/12/03 20:14:47;;;;;;;29.85;14.27;;;;;;;;;;4925250;29;20150;-65
2021/12/03 20:17:26;;;;;;;;;;;;;;;;;;4926436;29;20052;-65
2021/12/03 20:19:55;;;;;;;24.17;12.18;;;;;;;;;;4928921;29;20009;-64
2021/12/03 20:22:39;;;;;;;27.33;12.63;;;;;;;;;;4930282;29;20094;-64
2021/12/03 20:25:36;;;;;;;26.10;12.43;;;;;;;;;;4927803;29;20425;-64
2021/12/03 20:28:06;;;;;;;27.23;13.57;;;;;;;;;;4929997;29;20043;-64
2021/12/03 20:33:11;;;;;;;29.15;13.75;;;;;;;;;;4929361;29;20754;-65
2021/12/03 20:38:12;;;;;;;27.10;13.98;;;;;;;;;;4929198;29;20052;-65
2021/12/03 20:40:39;;;;;;;25.45;12.52;;;;;;;;;;4929201;29;20110;-65
2021/12/03 20:46:02;;;;;;;24.42;12.23;;;;;;;;;;4929073;29;20099;-65